createdAt,value
2019-05-25T00:00:20.155Z,3.23
2019-05-25T00:02:50.207Z,3.50
2019-05-25T00:05:20.212Z,3.70
2019-05-25T00:07:50.255Z,3.03
2019-05-25T00:10:20.262Z,3.00
2019-05-25T00:12:50.301Z,2.83
2019-05-25T00:15:20.308Z,3.37
2019-05-25T00:17:50.280Z,3.10
2019-05-25T00:20:20.299Z,3.77
2019-05-25T00:22:50.274Z,2.77
2019-05-25T00:25:20.324Z,3.00
2019-05-25T00:27:50.429Z,2.80
2019-05-25T00:30:20.805Z,3.10
2019-05-25T00:32:50.879Z,3.60
2019-05-25T00:35:20.993Z,3.50
2019-05-25T00:37:51.069Z,3.23
2019-05-25T00:40:21.110Z,3.40
2019-05-25T00:42:51.069Z,3.20
2019-05-25T00:45:21.040Z,3.30
2019-05-25T00:47:51.047Z,3.10
2019-05-25T00:50:21.021Z,3.53
2019-05-25T00:52:51.025Z,3.23
2019-05-25T00:55:20.999Z,2.97
2019-05-25T00:57:51.075Z,2.90
2019-05-25T01:00:21.442Z,2.77
2019-05-25T01:02:51.489Z,3.30
2019-05-25T01:05:21.470Z,3.17
2019-05-25T01:07:51.449Z,2.60
2019-05-25T01:10:21.462Z,3.17
2019-05-25T01:12:51.437Z,3.43
2019-05-25T01:15:21.641Z,3.53
2019-05-25T01:17:52.789Z,3.50
2019-05-25T01:20:23.700Z,3.47
2019-05-25T01:22:53.682Z,2.80
2019-05-25T01:25:23.653Z,2.90
2019-05-25T01:27:53.658Z,2.90
2019-05-25T01:30:24.689Z,2.90
2019-05-25T01:32:54.687Z,3.37
2019-05-25T01:35:24.784Z,3.13
2019-05-25T01:37:54.738Z,3.33
2019-05-25T01:40:24.745Z,2.77
2019-05-25T01:42:54.661Z,2.80
2019-05-25T01:45:25.649Z,3.33
2019-05-25T01:47:55.623Z,3.27
2019-05-25T01:50:25.569Z,3.73
2019-05-25T01:52:55.526Z,3.63
2019-05-25T01:55:25.534Z,3.57
2019-05-25T01:57:55.511Z,3.60
2019-05-25T02:00:25.715Z,3.83
2019-05-25T02:02:55.621Z,3.87
2019-05-25T02:05:25.704Z,3.20
2019-05-25T02:07:55.677Z,3.53
2019-05-25T02:10:25.542Z,4.37
2019-05-25T02:12:55.584Z,3.63
2019-05-25T02:15:25.589Z,3.50
2019-05-25T02:17:55.829Z,3.20
2019-05-25T02:20:25.842Z,3.87
2019-05-25T02:22:55.987Z,3.30
2019-05-25T02:25:25.999Z,3.90
2019-05-25T02:27:56.012Z,3.43
2019-05-25T02:30:27.598Z,3.87
2019-05-25T02:32:57.691Z,3.60
2019-05-25T02:35:28.470Z,3.70
2019-05-25T02:37:58.578Z,3.93
2019-05-25T02:40:28.812Z,4.17
2019-05-25T02:42:59.543Z,4.03
2019-05-25T02:45:29.518Z,4.20
2019-05-25T02:47:59.527Z,3.80
2019-05-25T02:50:29.497Z,4.17
2019-05-25T02:52:59.506Z,4.20
2019-05-25T02:55:34.227Z,3.80
2019-05-25T02:58:01.184Z,3.80
2019-05-25T03:00:35.411Z,3.80
2019-05-25T03:05:34.636Z,3.55
2019-05-25T03:08:05.494Z,3.83
2019-05-25T03:10:36.574Z,4.37
2019-05-25T03:13:06.551Z,4.10
2019-05-25T03:15:36.553Z,3.83
2019-05-25T03:18:06.564Z,3.17
2019-05-25T03:20:36.535Z,4.00
2019-05-25T03:23:06.548Z,3.73
2019-05-25T03:25:49.023Z,3.57
2019-05-25T03:28:08.295Z,3.37
2019-05-25T03:30:38.793Z,4.43
2019-05-25T03:33:08.711Z,3.80
2019-05-25T03:35:38.688Z,4.10
2019-05-25T03:38:08.699Z,3.53
2019-05-25T03:40:38.668Z,3.70
2019-05-25T03:43:08.674Z,3.10
2019-05-25T03:45:38.646Z,3.10
2019-05-25T03:48:08.655Z,3.53
2019-05-25T03:50:39.798Z,4.30
2019-05-25T03:53:09.804Z,4.23
2019-05-25T03:55:39.775Z,3.37
2019-05-25T03:58:09.674Z,3.77
2019-05-25T04:00:40.950Z,3.97
2019-05-25T04:03:10.964Z,4.20
2019-05-25T04:05:41.006Z,3.73
2019-05-25T04:08:11.019Z,3.87
2019-05-25T04:10:40.993Z,3.47
2019-05-25T04:13:11.066Z,3.40
2019-05-25T04:15:40.974Z,3.27
2019-05-25T04:18:11.047Z,3.93
2019-05-25T04:20:40.945Z,3.37
2019-05-25T04:23:12.138Z,3.40
2019-05-25T04:25:42.132Z,4.20
2019-05-25T04:28:12.206Z,3.20
2019-05-25T04:30:42.182Z,3.77
2019-05-25T04:33:12.193Z,3.30
2019-05-25T04:35:42.164Z,3.13
2019-05-25T04:38:12.173Z,3.53
2019-05-25T04:40:42.109Z,3.40
2019-05-25T04:43:13.083Z,3.70
2019-05-25T04:45:43.091Z,4.00
2019-05-25T04:48:13.067Z,3.63
2019-05-25T04:50:43.086Z,3.43
2019-05-25T04:53:14.031Z,3.57
2019-05-25T04:55:44.039Z,3.50
2019-05-25T04:58:14.078Z,3.23
2019-05-25T05:00:44.097Z,3.03
2019-05-25T05:03:14.069Z,3.67
2019-05-25T05:05:44.080Z,3.40
2019-05-25T05:08:14.053Z,3.20
2019-05-25T05:10:44.358Z,3.37
2019-05-25T05:13:14.371Z,3.60
2019-05-25T05:15:44.270Z,3.60
2019-05-25T05:18:14.315Z,3.40
2019-05-25T05:20:44.336Z,3.70
2019-05-25T05:23:14.249Z,3.53
2019-05-25T05:25:44.264Z,4.00
2019-05-25T05:28:14.240Z,3.83
2019-05-25T05:30:44.274Z,3.50
2019-05-25T05:33:14.274Z,3.57
2019-05-25T05:35:46.182Z,4.20
2019-05-25T05:38:17.261Z,4.23
2019-05-25T05:40:48.270Z,4.50
2019-05-25T05:43:20.617Z,4.30
2019-05-25T05:45:54.034Z,4.47
2019-05-25T05:48:26.298Z,3.27
2019-05-25T05:50:59.232Z,3.70
2019-05-25T05:53:29.210Z,4.37
2019-05-25T05:55:59.220Z,4.57
2019-05-25T05:58:29.237Z,3.77
2019-05-25T06:00:59.215Z,4.70
2019-05-25T06:03:30.193Z,5.87
2019-05-25T06:06:00.180Z,6.03
2019-05-25T06:08:30.198Z,5.70
2019-05-25T06:11:01.183Z,6.60
2019-05-25T06:13:31.208Z,6.50
2019-05-25T06:16:01.182Z,5.60
2019-05-25T06:18:31.204Z,6.63
2019-05-25T06:21:01.175Z,6.13
2019-05-25T06:23:31.114Z,6.50
2019-05-25T06:26:01.087Z,6.60
2019-05-25T06:28:32.176Z,6.13
2019-05-25T06:31:02.196Z,6.03
2019-05-25T06:33:32.243Z,5.23
2019-05-25T06:36:02.333Z,5.57
2019-05-25T06:38:32.320Z,5.50
2019-05-25T06:41:02.320Z,5.27
2019-05-25T06:43:32.221Z,4.63
2019-05-25T06:46:02.309Z,5.40
2019-05-25T06:48:32.296Z,5.63
2019-05-25T06:51:02.383Z,5.30
2019-05-25T06:53:32.367Z,5.80
2019-05-25T06:56:02.385Z,5.23
2019-05-25T06:58:32.434Z,4.90
2019-05-25T07:01:03.615Z,4.67
2019-05-25T07:03:33.706Z,5.57
2019-05-25T07:06:03.754Z,4.27
2019-05-25T07:08:34.817Z,5.47
2019-05-25T07:11:04.875Z,5.07
2019-05-25T07:13:34.812Z,4.80
2019-05-25T07:16:04.825Z,4.67
2019-05-25T07:18:35.712Z,4.30
2019-05-25T07:21:06.401Z,4.90
2019-05-25T07:23:36.381Z,4.53
2019-05-25T07:26:06.396Z,4.77
2019-05-25T07:28:36.364Z,5.30
2019-05-25T07:31:06.382Z,4.73
2019-05-25T07:33:36.374Z,4.90
2019-05-25T07:36:07.696Z,4.80
2019-05-25T07:38:38.049Z,4.77
2019-05-25T07:41:08.060Z,4.10
2019-05-25T07:43:38.034Z,4.37
2019-05-25T07:46:08.080Z,10.73
2019-05-25T07:48:38.119Z,4.70
2019-05-25T07:51:08.197Z,4.50
2019-05-25T07:53:38.189Z,4.30
2019-05-25T07:56:08.251Z,4.47
2019-05-25T07:58:38.225Z,4.73
2019-05-25T08:01:08.234Z,4.50
2019-05-25T08:03:39.859Z,4.43
2019-05-25T08:06:10.072Z,4.40
2019-05-25T08:08:40.048Z,4.20
2019-05-25T08:11:11.065Z,3.77
2019-05-25T08:13:41.034Z,4.50
2019-05-25T08:16:11.037Z,4.43
2019-05-25T08:18:41.035Z,4.37
2019-05-25T08:21:11.041Z,4.03
2019-05-25T08:23:41.094Z,4.20
2019-05-25T08:26:11.115Z,3.73
2019-05-25T08:28:41.098Z,3.90
2019-05-25T08:31:11.020Z,4.00
2019-05-25T08:33:41.012Z,4.60
2019-05-25T08:36:11.024Z,3.60
2019-05-25T08:38:41.090Z,4.10
2019-05-25T08:41:11.120Z,3.50
2019-05-25T08:43:41.015Z,3.90
2019-05-25T08:46:11.023Z,3.90
2019-05-25T08:48:41.032Z,4.80
2019-05-25T08:51:11.042Z,3.90
2019-05-25T08:53:42.386Z,4.73
2019-05-25T08:56:13.002Z,3.80
2019-05-25T08:58:49.027Z,3.47
2019-05-25T09:01:16.975Z,4.37
2019-05-25T09:03:47.007Z,4.40
2019-05-25T09:06:17.000Z,4.53
2019-05-25T09:08:46.986Z,4.47
2019-05-25T09:11:16.995Z,3.87
2019-05-25T09:13:47.039Z,3.77
2019-05-25T09:16:17.068Z,3.90
2019-05-25T09:18:46.968Z,3.17
2019-05-25T09:21:17.048Z,4.80
2019-05-25T09:23:48.846Z,3.53
2019-05-25T09:26:18.799Z,3.40
2019-05-25T09:29:03.580Z,4.37
2019-05-25T09:31:20.624Z,3.47
2019-05-25T09:33:51.669Z,3.53
2019-05-25T09:36:21.681Z,3.60
2019-05-25T09:38:51.704Z,4.20
2019-05-25T09:41:21.646Z,3.40
2019-05-25T09:43:51.642Z,3.80
2019-05-25T09:46:21.707Z,5.10
2019-05-25T09:48:51.763Z,5.00
2019-05-25T09:51:21.826Z,3.93
2019-05-25T09:53:51.812Z,6.70
2019-05-25T09:56:21.846Z,6.80
2019-05-25T09:58:51.824Z,5.33
2019-05-25T10:01:21.923Z,4.70
2019-05-25T10:03:51.822Z,3.87
2019-05-25T10:06:21.937Z,4.73
2019-05-25T10:08:51.948Z,5.17
2019-05-25T10:11:21.931Z,3.83
2019-05-25T10:13:51.961Z,5.00
2019-05-25T10:16:21.921Z,5.60
2019-05-25T10:18:51.899Z,4.80
2019-05-25T10:21:21.911Z,5.50
2019-05-25T10:23:51.889Z,5.77
2019-05-25T10:26:23.106Z,4.97
2019-05-25T10:28:53.570Z,5.20
2019-05-25T10:31:23.582Z,4.90
2019-05-25T10:33:53.572Z,5.80
2019-05-25T10:36:23.581Z,5.73
2019-05-25T10:38:53.554Z,4.27
2019-05-25T10:41:23.558Z,4.90
2019-05-25T10:43:53.574Z,4.97
2019-05-25T10:46:23.482Z,5.47
2019-05-25T10:48:53.562Z,5.00
2019-05-25T10:51:23.537Z,4.33
2019-05-25T10:53:54.617Z,3.93
2019-05-25T10:56:24.593Z,3.90
2019-05-25T10:58:54.673Z,5.00
2019-05-25T11:01:24.587Z,4.50
2019-05-25T11:03:54.605Z,5.47
2019-05-25T11:06:24.583Z,4.50
2019-05-25T11:08:54.591Z,4.30
2019-05-25T11:11:24.565Z,4.60
2019-05-25T11:13:54.511Z,4.80
2019-05-25T11:16:24.485Z,4.60
2019-05-25T11:18:54.501Z,5.10
2019-05-25T11:21:24.469Z,4.43
2019-05-25T11:23:54.483Z,5.03
2019-05-25T11:26:24.474Z,4.93
2019-05-25T11:28:54.506Z,4.63
2019-05-25T11:31:24.489Z,4.40
2019-05-25T11:33:54.595Z,3.97
2019-05-25T11:36:24.639Z,4.07
2019-05-25T11:38:54.650Z,4.37
2019-05-25T11:41:24.637Z,4.53
2019-05-25T11:43:54.648Z,4.40
2019-05-25T11:46:24.625Z,3.93
2019-05-25T11:48:54.675Z,4.60
2019-05-25T11:51:24.544Z,4.40
2019-05-25T11:53:54.563Z,4.27
2019-05-25T11:56:24.539Z,4.53
2019-05-25T11:58:54.548Z,4.33
2019-05-25T12:01:24.540Z,4.50
2019-05-25T12:03:54.483Z,3.10
2019-05-25T12:06:24.529Z,3.90
2019-05-25T12:08:54.611Z,3.10
2019-05-25T12:11:24.588Z,3.50
2019-05-25T12:13:54.598Z,3.33
2019-05-25T12:16:25.024Z,5.40
2019-05-25T12:18:55.130Z,3.97
2019-05-25T12:21:25.103Z,4.67
2019-05-25T12:23:55.184Z,4.57
2019-05-25T12:26:25.160Z,3.77
2019-05-25T12:28:55.172Z,3.70
2019-05-25T12:31:25.166Z,4.23
2019-05-25T12:33:55.181Z,4.60
2019-05-25T12:36:25.221Z,4.67
2019-05-25T12:38:55.268Z,5.30
2019-05-25T12:41:25.355Z,5.30
2019-05-25T12:43:55.629Z,5.00
2019-05-25T12:46:25.618Z,4.73
2019-05-25T12:48:55.663Z,4.70
2019-05-25T12:51:25.673Z,5.87
2019-05-25T12:53:55.570Z,3.93
2019-05-25T12:56:25.582Z,3.17
2019-05-25T12:58:55.553Z,4.03
2019-05-25T13:01:25.571Z,4.17
2019-05-25T13:03:55.552Z,3.07
2019-05-25T13:06:25.565Z,3.40
2019-05-25T13:08:56.114Z,3.43
2019-05-25T13:11:26.330Z,2.77
2019-05-25T13:13:56.240Z,2.80
2019-05-25T13:16:26.793Z,3.13
2019-05-25T13:18:57.580Z,3.80
2019-05-25T13:21:28.104Z,3.77
2019-05-25T13:23:58.093Z,3.43
2019-05-25T13:26:28.445Z,4.00
2019-05-25T13:28:58.729Z,4.50
2019-05-25T13:31:31.433Z,4.00
2019-05-25T13:34:01.575Z,3.77
2019-05-25T13:36:31.661Z,4.87
2019-05-25T13:39:01.710Z,5.20
2019-05-25T13:41:31.989Z,4.47
2019-05-25T13:44:01.980Z,4.87
2019-05-25T13:46:31.995Z,4.20
2019-05-25T13:49:02.001Z,4.10
2019-05-25T13:51:32.040Z,4.10
2019-05-25T13:54:02.049Z,4.17
2019-05-25T13:56:32.041Z,4.37
2019-05-25T13:59:03.222Z,4.60
2019-05-25T14:01:33.312Z,3.83
2019-05-25T14:04:03.344Z,4.00
2019-05-25T14:06:33.394Z,3.73
2019-05-25T14:09:04.684Z,3.57
2019-05-25T14:11:34.724Z,3.87
2019-05-25T14:14:05.086Z,3.80
2019-05-25T14:16:35.065Z,3.70
2019-05-25T14:19:05.347Z,4.57
2019-05-25T14:21:35.349Z,3.87
2019-05-25T14:24:05.333Z,4.10
2019-05-25T14:26:35.343Z,3.40
2019-05-25T14:29:05.389Z,3.90
2019-05-25T14:31:44.894Z,3.77
2019-05-25T14:34:07.070Z,4.10
2019-05-25T14:36:38.248Z,3.83
2019-05-25T14:39:09.224Z,3.77
2019-05-25T14:41:39.160Z,3.67
2019-05-25T14:44:09.131Z,3.83
2019-05-25T14:46:39.073Z,3.40
2019-05-25T14:49:09.111Z,3.23
2019-05-25T14:51:39.040Z,3.10
2019-05-25T14:54:09.102Z,3.00
2019-05-25T14:56:39.081Z,3.67
2019-05-25T14:59:09.435Z,3.23
2019-05-25T15:01:39.641Z,3.03
2019-05-25T15:04:09.652Z,3.37
2019-05-25T15:06:39.672Z,3.40
2019-05-25T15:09:09.678Z,3.17
2019-05-25T15:11:39.569Z,2.87
2019-05-25T15:14:09.544Z,3.47
2019-05-25T15:16:39.708Z,3.27
2019-05-25T15:19:09.759Z,2.97
2019-05-25T15:21:39.920Z,2.83
2019-05-25T15:24:10.069Z,3.13
2019-05-25T15:26:40.061Z,2.77
2019-05-25T15:29:11.533Z,2.83
2019-05-25T15:31:42.065Z,3.10
2019-05-25T15:34:12.039Z,2.90
2019-05-25T15:36:42.153Z,2.80
2019-05-25T15:39:12.140Z,2.97
2019-05-25T15:41:42.221Z,3.00
2019-05-25T15:44:12.275Z,3.40
2019-05-25T15:46:42.360Z,3.13
2019-05-25T15:49:12.412Z,3.20
2019-05-25T15:51:42.493Z,3.77
2019-05-25T15:54:12.498Z,2.97
2019-05-25T15:56:42.593Z,3.10
2019-05-25T15:59:12.571Z,3.00
2019-05-25T16:01:42.503Z,3.10
2019-05-25T16:04:12.477Z,2.80
2019-05-25T16:06:42.515Z,3.27
2019-05-25T16:09:12.557Z,3.40
2019-05-25T16:11:42.633Z,3.50
2019-05-25T16:14:12.646Z,3.30
2019-05-25T16:16:42.694Z,3.00
2019-05-25T16:19:12.810Z,3.40
2019-05-25T16:21:42.789Z,3.77
2019-05-25T16:24:12.904Z,3.23
2019-05-25T16:26:46.313Z,3.40
2019-05-25T16:29:14.581Z,3.83
2019-05-25T16:31:44.550Z,3.67
2019-05-25T16:34:14.563Z,4.20
2019-05-25T16:36:44.461Z,4.27
2019-05-25T16:39:14.484Z,4.03
2019-05-25T16:41:44.606Z,4.30
2019-05-25T16:44:14.629Z,4.27
2019-05-25T16:46:44.606Z,3.73
2019-05-25T16:49:14.625Z,3.30
2019-05-25T16:51:44.590Z,3.57
2019-05-25T16:54:14.593Z,3.17
2019-05-25T16:56:44.675Z,3.10
2019-05-25T16:59:14.682Z,3.13
2019-05-25T17:01:48.449Z,3.17
2019-05-25T17:04:16.384Z,2.57
2019-05-25T17:06:46.381Z,3.10
2019-05-25T17:09:16.406Z,2.87
2019-05-25T17:11:46.403Z,3.10
2019-05-25T17:14:16.312Z,2.70
2019-05-25T17:16:46.317Z,2.77
2019-05-25T17:19:16.302Z,2.97
2019-05-25T17:21:46.324Z,2.47
2019-05-25T17:24:16.318Z,3.43
2019-05-25T17:26:46.841Z,3.03
2019-05-25T17:29:16.815Z,3.20
2019-05-25T17:31:46.871Z,3.53
2019-05-25T17:34:16.811Z,3.30
2019-05-25T17:36:47.044Z,3.70
2019-05-25T17:39:17.337Z,3.70
2019-05-25T17:41:47.338Z,3.30
2019-05-25T17:44:17.416Z,3.20
2019-05-25T17:46:47.391Z,3.40
2019-05-25T17:49:18.594Z,3.93
2019-05-25T17:51:48.626Z,10.37
2019-05-25T17:54:18.870Z,4.23
2019-05-25T17:56:48.802Z,4.20
2019-05-25T17:59:18.814Z,7.20
2019-05-25T18:01:49.190Z,5.60
2019-05-25T18:04:19.327Z,5.50
2019-05-25T18:06:49.297Z,4.40
2019-05-25T18:09:19.332Z,4.97
2019-05-25T18:11:50.578Z,5.07
2019-05-25T18:14:21.267Z,5.07
2019-05-25T18:16:51.917Z,4.80
2019-05-25T18:19:22.120Z,5.00
2019-05-25T18:21:52.168Z,4.70
2019-05-25T18:24:22.270Z,5.57
2019-05-25T18:26:52.247Z,5.20
2019-05-25T18:29:23.917Z,5.53
2019-05-25T18:31:53.979Z,4.90
2019-05-25T18:34:23.982Z,5.20
2019-05-25T18:36:54.042Z,5.07
2019-05-25T18:39:24.259Z,4.50
2019-05-25T18:41:54.698Z,5.57
2019-05-25T18:44:26.111Z,6.00
2019-05-25T18:46:56.158Z,6.13
2019-05-25T18:49:26.238Z,5.83
2019-05-25T18:51:56.226Z,6.10
2019-05-25T18:54:26.650Z,5.13
2019-05-25T18:56:56.628Z,5.87
2019-05-25T18:59:26.633Z,5.00
2019-05-25T19:01:56.572Z,9.47
2019-05-25T19:04:43.606Z,5.80
2019-05-25T19:06:58.229Z,5.70
2019-05-25T19:09:28.198Z,6.50
2019-05-25T19:11:58.176Z,5.67
2019-05-25T19:14:28.944Z,6.50
2019-05-25T19:16:58.868Z,5.83
2019-05-25T19:19:28.892Z,5.60
2019-05-25T19:21:58.963Z,5.80
2019-05-25T19:24:28.989Z,5.47
2019-05-25T19:26:59.495Z,6.60
2019-05-25T19:29:30.398Z,5.80
2019-05-25T19:32:00.590Z,6.23
2019-05-25T19:34:30.573Z,6.30
2019-05-25T19:37:03.414Z,6.03
2019-05-25T19:39:32.852Z,5.83
2019-05-25T19:42:02.993Z,6.47
2019-05-25T19:44:32.972Z,5.90
2019-05-25T19:47:03.124Z,6.27
2019-05-25T19:49:33.601Z,5.73
2019-05-25T19:52:03.626Z,6.00
2019-05-25T19:54:33.719Z,6.20
2019-05-25T19:57:03.708Z,6.10
2019-05-25T19:59:33.741Z,5.53
2019-05-25T20:02:04.200Z,6.70
2019-05-25T20:04:34.819Z,6.20
2019-05-25T20:07:05.623Z,6.67
2019-05-25T20:09:35.635Z,6.53
2019-05-25T20:12:05.615Z,5.90
2019-05-25T20:14:35.639Z,6.00
2019-05-25T20:17:06.583Z,5.27
2019-05-25T20:19:36.664Z,5.23
2019-05-25T20:22:09.141Z,5.33
2019-05-25T20:24:38.435Z,5.50
2019-05-25T20:27:08.357Z,5.60
2019-05-25T20:29:38.368Z,5.20
2019-05-25T20:32:08.345Z,4.93
2019-05-25T20:34:38.924Z,5.60
2019-05-25T20:37:09.075Z,5.17
2019-05-25T20:39:39.144Z,5.10
2019-05-25T20:42:09.050Z,5.40
2019-05-25T20:44:39.516Z,5.93
2019-05-25T20:47:09.547Z,5.03
2019-05-25T20:49:39.557Z,5.77
2019-05-25T20:52:09.567Z,6.10
2019-05-25T20:54:39.557Z,6.30
2019-05-25T20:57:09.650Z,5.73
2019-05-25T20:59:39.682Z,6.80
2019-05-25T21:02:09.717Z,6.83
2019-05-25T21:04:39.754Z,7.07
2019-05-25T21:07:09.848Z,7.30
2019-05-25T21:09:39.835Z,8.37
2019-05-25T21:12:09.859Z,8.30
2019-05-25T21:14:39.790Z,8.40
2019-05-25T21:17:09.807Z,8.83
2019-05-25T21:19:39.862Z,8.37
2019-05-25T21:22:09.951Z,8.60
2019-05-25T21:24:40.008Z,8.20
2019-05-25T21:27:09.997Z,8.37
2019-05-25T21:29:40.049Z,8.30
2019-05-25T21:32:10.046Z,8.60
2019-05-25T21:34:40.520Z,8.63
2019-05-25T21:37:10.537Z,8.90
2019-05-25T21:39:41.234Z,7.03
2019-05-25T21:42:11.148Z,9.00
2019-05-25T21:44:41.392Z,7.63
2019-05-25T21:47:11.376Z,9.17
2019-05-25T21:49:41.796Z,8.90
2019-05-25T21:52:12.390Z,8.20
2019-05-25T21:54:42.372Z,8.40
2019-05-25T21:57:12.365Z,8.70
2019-05-25T21:59:42.443Z,8.83
2019-05-25T22:02:12.462Z,9.50
2019-05-25T22:04:42.557Z,8.93
2019-05-25T22:07:12.543Z,8.63
2019-05-25T22:09:42.587Z,10.20
2019-05-25T22:12:12.578Z,9.67
2019-05-25T22:14:43.106Z,10.23
2019-05-25T22:17:13.059Z,9.83
2019-05-25T22:19:43.001Z,9.33
2019-05-25T22:22:12.986Z,9.93
2019-05-25T22:24:43.007Z,9.37
2019-05-25T22:27:12.959Z,8.60
2019-05-25T22:29:42.946Z,9.33
2019-05-25T22:32:13.950Z,9.10
2019-05-25T22:34:43.933Z,7.97
2019-05-25T22:37:13.896Z,8.83
2019-05-25T22:39:43.881Z,9.07
2019-05-25T22:42:13.899Z,9.17
2019-05-25T22:44:44.503Z,8.17
2019-05-25T22:47:14.937Z,8.70
2019-05-25T22:49:45.280Z,8.87
2019-05-25T22:52:15.797Z,7.93
2019-05-25T22:54:45.818Z,8.53
2019-05-25T22:57:15.770Z,8.53
2019-05-25T22:59:45.757Z,7.70
2019-05-25T23:02:15.779Z,8.47
2019-05-25T23:04:45.715Z,8.10
2019-05-25T23:07:15.878Z,7.63
2019-05-25T23:09:45.939Z,8.00
2019-05-25T23:12:15.958Z,8.50
2019-05-25T23:14:45.938Z,7.27
2019-05-25T23:17:15.962Z,7.43
2019-05-25T23:19:45.950Z,7.90
2019-05-25T23:22:16.042Z,7.20
2019-05-25T23:24:45.995Z,8.20
2019-05-25T23:27:16.344Z,7.50
2019-05-25T23:29:46.678Z,7.03
2019-05-25T23:32:16.757Z,7.43
2019-05-25T23:34:46.745Z,7.70
2019-05-25T23:37:16.836Z,7.53
2019-05-25T23:39:46.843Z,8.33
2019-05-25T23:42:16.858Z,7.33
2019-05-25T23:44:46.865Z,7.60
2019-05-25T23:47:16.888Z,8.37
2019-05-25T23:49:46.887Z,8.00
2019-05-25T23:52:16.874Z,7.97
2019-05-25T23:54:46.964Z,7.40
2019-05-25T23:57:16.950Z,8.03
2019-05-25T23:59:48.135Z,7.70
